Prestbury, United Kingdom
Current Conditions -  °F | °C
As of 10:50 PM on Tuesday 27 Jan 2015 (Local Time) from EGCC Reporting Station
Broken Clouds Broken Clouds  
Wind Chill: 35°   Ceiling: 2100
Heat Index: 41°   Visibility: 6mi
Dew Point: 37°   Wind: 10mph
Humidity: 87%   Direction: 190°S
Pressure: 29.97"   Gusts: NA
Location:  53.28°N, 2.15°W
Report Text: EGCC 272250Z 19009KT 9999 BKN021 05/03 Q1015 NOSIG
Loading
Personal Weather Stations






























Interactive Weather Map New forecast layout! Learn more

10-Day Weather Forecast

Advertisements
Track Severe Weather on mobile